Latest Coastal Weather Observations for Gabo Island (VIC)

IDN60701

Issued at 2:03 am EDT Tuesday 3 March 2015 (issued every 10 minutes, with the page automatically refreshed every 10 minutes)

About coastal observations | Map of coastal stations | Coastal observations for NSW | Marine services | Other Formats
Station Details ID: 084016 Name: GABO ISLAND LIGHTHOUSE Lat: -37.57 Lon: 149.92 Height: 15.2 m
Data from the previous 72 hours. | See also: Recent months at Gabo Island (VIC)
Date/Time
EDT
Temp

°C
Wind Pressure Rain
since 9am
mm
Weather Cloud Vis
km
Sea
Height
m
Swell
Dir
 
Speed
knots
Gust
knots
hPa Trend Height
m
Period
s
Dir
03/02:00am 19.9 N 12 17 1013.6 - 0.0 - - - - - - -
03/01:30am 20.0 N 16 24 1013.7 - 0.0 - - - - - - -
03/01:00am 20.0 NNE 18 23 1013.7 - 0.0 - - - - - - -
03/12:30am 20.2 NNE 16 22 1014.7 - 0.0 - - - - - - -
03/12:00am 19.9 NNE 14 21 1015.1 - 0.0 - - - - - - -
 
Date/Time
EDT
Temp

°C
Wind Pressure Rain
since 9am
mm
Weather Cloud Vis
km
Sea
Height
m
Swell
Dir
 
Speed
knots
Gust
knots
hPa Trend Height
m
Period
s
Dir
02/11:30pm 19.7 NNE 15 19 1015.4 - 0.0 - - - - - - -
02/11:00pm 19.4 N 9 13 1015.8 - 0.0 - - - - - - -
02/10:30pm 19.6 NNE 12 17 1016.3 - 0.0 - - - - - - -
02/10:00pm 19.4 NNE 14 18 1015.9 - 0.0 - - - - - - -
02/09:30pm 19.2 NNE 13 17 1015.7 - 0.0 - - - - - - -
02/09:00pm 19.4 NNE 15 19 1015.7 - 0.0 Fine Mostly clear 40 1 1.0 - SE
02/08:30pm 19.6 NNE 16 19 1015.6 - 0.0 - - - - - - -
02/08:00pm 19.9 NNE 19 24 1015.2 - 0.0 - - - - - - -
02/07:30pm 19.9 NNE 19 24 1015.4 - 0.0 - - - - - - -
02/07:00pm 20.2 NE 21 26 1014.7 - 0.0 - - - - - - -
02/06:30pm 20.2 NE 22 26 1015.1 - 0.0 - - - - - - -
02/06:00pm 20.8 NE 18 25 1015.3 - 0.0 - - - - - - -
02/05:30pm 20.8 NNE 18 23 1015.5 - 0.0 - - - - - - -
02/05:00pm 20.2 NE 18 21 1015.9 - 0.0 - - - - - - -
02/04:30pm 20.7 NE 17 20 1016.3 - 0.0 - - - - - - -
02/04:00pm 21.0 NE 15 18 1016.5 - 0.0 - - - - - - -
02/03:30pm 20.7 NE 15 17 1017.0 - 0.0 - - - - - - -
02/03:00pm 21.2 NE 13 16 1017.2 - 0.0 Fine Mostly clear 40 1 1.0 - S
02/02:30pm 21.1 NE 11 12 1017.9 - 0.0 - - - - - - -
02/02:00pm 20.0 ENE 12 15 1018.0 - 0.0 - - - - - - -
02/01:30pm 20.5 ENE 11 13 1018.3 - 0.0 - - - - - - -
02/01:00pm 19.8 E 10 12 1018.5 - 0.0 - - - - - - -
02/12:30pm 19.8 E 7 10 1018.8 - 0.0 - - - - - - -
02/12:00pm 19.5 SE 5 9 1019.2 - 0.0 - - - - - - -
02/11:30am 19.3 SSE 5 6 1019.4 - 0.0 - - - - - - -
02/11:00am 18.2 S 5 5 1019.5 - 0.0 - - - - - - -
02/10:30am 17.6 SSW 6 7 1019.8 - 0.0 - - - - - - -
02/10:00am 17.8 WSW 8 10 1020.0 - 0.0 - - - - - - -
02/09:30am 17.6 WSW 8 9 1019.9 - 0.0 - - - - - - -
02/09:00am 16.6 W 8 10 1019.7 - 0.8 Fine Mostly clear 40 <0.5 1.0 - SW
02/08:30am 15.8 WNW 9 12 1019.7 - 0.8 - - - - - - -
02/08:00am 15.0 WNW 9 11 1019.7 - 0.8 - - - - - - -
02/07:30am 14.4 WNW 9 11 1019.3 - 0.8 - - - - - - -
02/07:00am 13.9 WNW 10 12 1019.1 - 0.8 - - - - - - -
02/06:30am 14.3 WNW 10 13 1019.1 - 0.8 - - - - - - -
02/06:00am 14.5 WNW 10 13 1018.8 - 0.8 - - - - - - -
02/05:30am 14.9 WNW 10 14 1018.7 - 0.8 - - - - - - -
02/05:00am 15.0 WNW 10 13 1018.4 - 0.8 - - - - - - -
02/04:30am 14.8 WNW 11 15 1017.9 - 0.8 - - - - - - -
02/04:00am 14.7 WNW 11 15 1017.7 - 0.8 - - - - - - -
02/03:30am 14.6 WNW 11 14 1017.6 - 0.8 - - - - - - -
02/03:00am 14.8 NW 11 13 1017.4 - 0.8 - - - - - - -
02/02:30am 14.7 NW 10 13 1017.6 - 0.8 - - - - - - -
02/02:00am 14.8 WNW 10 12 1017.7 - 0.8 - - - - - - -
02/01:30am 15.0 WNW 10 13 1017.6 - 0.8 - - - - - - -
02/01:00am 14.9 WNW 10 13 1017.4 - 0.8 - - - - - - -
02/12:30am 15.3 W 10 13 1017.4 - 0.8 - - - - - - -
02/12:00am 15.8 W 11 13 1017.3 - 0.8 - - - - - - -
 
Date/Time
EDT
Temp

°C
Wind Pressure Rain
since 9am
mm
Weather Cloud Vis
km
Sea
Height
m
Swell
Dir
 
Speed
knots
Gust
knots
hPa Trend Height
m
Period
s
Dir
01/11:30pm 15.9 W 11 15 1017.6 - 0.8 - - - - - - -
01/11:00pm 17.3 SW 13 16 1017.5 - 0.8 - - - - - - -
01/10:30pm 17.6 SW 16 18 1017.4 - 0.8 - - - - - - -
01/10:00pm 17.9 SW 18 22 1017.2 - 0.8 - - - - - - -
01/09:30pm 17.8 SW 20 24 1016.8 - 0.8 - - - - - - -
01/09:00pm 17.9 SW 20 23 1016.3 - 0.8 Fine Mostly clear 30 2 1.0 - SW
01/08:30pm 18.0 SW 22 26 1015.9 - 0.8 - - - - - - -
01/08:00pm 18.0 SW 22 26 1015.3 - 0.8 - - - - - - -
01/07:30pm 18.0 SW 22 26 1014.7 - 0.8 - - - - - - -
01/07:00pm 18.3 SW 24 29 1014.2 - 0.8 - - - - - - -
01/06:30pm 18.3 SW 24 29 1013.6 - 0.8 - - - - - - -
01/06:00pm 18.7 WSW 25 29 1013.0 - 0.8 - - - - - - -
01/05:30pm 18.8 WSW 25 31 1012.7 - 0.8 - - - - - - -
01/05:00pm 18.9 SW 25 31 1012.4 - 0.8 - - - - - - -
01/04:30pm 18.8 WSW 26 32 1012.1 - 0.8 - - - - - - -
01/04:00pm 18.6 SW 31 36 1011.6 - 0.8 - - - - - - -
01/03:30pm 19.1 WSW 29 35 1011.4 - 0.8 - - - - - - -
01/03:00pm 18.9 SW 29 36 1011.3 - 0.8 Fine Mostly clear 25 2 1.0 - SW
01/02:30pm 18.7 SW 32 37 1011.0 - 0.8 - - - - - - -
01/02:00pm 19.1 SW 29 36 1010.5 - 0.8 - - - - - - -
01/01:30pm 18.5 SW 29 39 1010.6 - 0.8 - - - - - - -
01/01:21pm 18.2 SW 27 34 1010.6 - 0.8 - - - - - - -
01/01:00pm 17.9 WSW 19 24 1010.6 - 0.8 - - - - - - -
01/12:30pm 17.4 WSW 17 22 1010.4 - 0.8 - - - - - - -
01/12:00pm 17.1 WSW 20 23 1010.4 - 0.8 - - - - - - -
01/11:30am 17.1 SW 21 25 1010.1 - 0.8 - - - - - - -
01/11:00am 17.2 WSW 22 27 1009.7 - 0.8 - - - - - - -
01/10:30am 17.1 SW 25 31 1008.7 - 0.8 - - - - - - -
01/10:00am 17.4 SW 27 33 1008.1 - 0.8 - - - - - - -
01/09:39am 18.3 SW 25 28 1006.9 - 0.4 - - - - - - -
01/09:30am 18.5 WSW 12 14 1007.7 - 0.2 - - - - - - -
01/09:00am 18.5 SW 13 16 1006.0 - 1.0 Recent precip. Mostly cloudy 7 1 1.0 - NE
01/08:30am 18.9 WSW 13 17 1007.6 - 0.4 - - - - - - -
01/08:29am 19.0 WSW 13 16 1007.4 - 0.4 - - - - - - -
01/08:00am 19.0 SSW 4 6 1005.4 - 0.4 - - - - - - -
01/07:30am 18.9 SSW 6 9 1005.3 - 0.2 - - - - - - -
01/07:20am 19.3 N 4 6 1005.7 - 0.2 - - - - - - -
01/07:00am 19.2 N 5 6 1003.6 - 0.0 - - - - - - -
01/06:30am 19.7 WNW 3 4 1002.9 - 0.0 - - - - - - -
01/06:00am 19.6 WNW 3 5 1002.6 - 0.0 - - - - - - -
01/05:30am 19.7 WSW 9 11 1003.8 - 0.0 - - - - - - -
01/05:00am 19.8 WSW 15 17 1004.1 - 0.0 - - - - - - -
01/04:30am 20.3 WSW 16 19 1004.1 - 0.0 - - - - - - -
01/04:00am 21.2 WSW 14 18 1003.7 - 0.0 - - - - - - -
01/03:30am 21.7 WSW 14 17 1003.4 - 0.0 - - - - - - -
01/03:00am 22.2 W 13 19 1002.9 - 0.0 Lightning Mostly cloudy 30 - - - -
01/02:53am 21.4 WSW 10 17 1003.0 - 0.0 - - - - - - -
01/02:30am 20.3 NNW 3 9 1001.0 - 0.0 - - - - - - -
01/02:00am 20.2 NNE 15 19 1001.1 - 0.0 - - - - - - -
01/01:30am 20.4 NNE 23 26 1001.2 - 0.0 - - - - - - -
01/01:00am 20.4 NNE 12 19 1002.3 - 0.0 - - - - - - -
01/12:30am 20.9 N 9 14 1003.1 - 0.0 - - - - - - -
01/12:00am 20.9 NNE 21 24 1002.8 - 0.0 - - - - - - -
 
Date/Time
EDT
Temp

°C
Wind Pressure Rain
since 9am
mm
Weather Cloud Vis
km
Sea
Height
m
Swell
Dir
 
Speed
knots
Gust
knots
hPa Trend Height
m
Period
s
Dir
28/11:30pm 20.9 NE 21 25 1003.3 - 0.0 - - - - - - -
28/11:00pm 20.9 NNE 19 23 1004.3 - 0.0 - - - - - - -
28/10:30pm 21.2 NNE 19 22 1004.7 - 0.0 - - - - - - -
28/10:00pm 21.3 NNE 19 23 1005.1 - 0.0 - - - - - - -
28/09:30pm 21.5 NNE 18 22 1005.4 - 0.0 - - - - - - -
28/09:00pm 21.4 NNE 15 19 1005.4 - 0.0 Fine Mostly cloudy 30 1 1.0 - S
28/08:30pm 20.9 NNE 12 14 1005.9 - 0.0 - - - - - - -
28/08:00pm 21.0 NNE 10 12 1005.9 - 0.0 - - - - - - -
28/07:30pm 21.3 NNE 12 14 1005.6 - 0.0 - - - - - - -
28/07:00pm 22.0 NNE 13 15 1005.5 - 0.0 - - - - - - -
28/06:30pm 22.5 NNE 14 17 1005.3 - 0.0 - - - - - - -
28/06:00pm 22.5 NNE 17 19 1005.0 - 0.0 - - - - - - -
28/05:30pm 22.8 NNE 15 18 1005.2 - 0.0 - - - - - - -
28/05:00pm 22.8 NNE 16 18 1005.1 - 0.0 - - - - - - -
28/04:30pm 22.8 NNE 16 18 1005.2 - 0.0 - - - - - - -
28/04:00pm 23.0 NNE 15 18 1005.3 - 0.0 - - - - - - -
28/03:30pm 22.5 NNE 15 17 1005.5 - 0.0 - - - - - - -
28/03:00pm 22.1 NNE 17 19 1005.4 - 0.0 Haze Mostly cloudy 10 1 2.0 - SE
28/02:30pm 22.7 NNE 19 22 1005.8 - 0.0 - - - - - - -
28/02:00pm 23.1 NNE 18 20 1006.0 - 0.0 - - - - - - -
28/01:30pm 22.7 NNE 16 19 1006.4 - 0.0 - - - - - - -
28/01:00pm 22.8 NNE 17 22 1006.6 - 0.0 - - - - - - -
28/12:30pm 21.7 NE 24 27 1005.8 - 0.0 - - - - - - -
28/12:00pm 22.1 NNE 19 23 1007.0 - 0.0 - - - - - - -
28/11:30am 22.0 NNE 18 25 1007.3 - 0.0 - - - - - - -
28/11:00am 22.2 NE 17 22 1007.4 - 0.0 - - - - - - -
28/10:30am 22.2 NE 17 23 1008.0 - 0.0 - - - - - - -
28/10:00am 22.2 NE 14 16 1008.5 - 0.0 - - - - - - -
28/09:30am 21.8 NNE 11 13 1008.9 - 0.0 - - - - - - -
28/09:00am 20.2 NNE 3 6 1008.8 - 0.0 Haze Cloudy 10 <0.1 2.0 - SE
28/08:30am 19.6 CALM 0 0 1009.1 - 0.0 - - - - - - -
28/08:00am 18.8 W 4 6 1009.2 - 0.0 - - - - - - -
28/07:30am 18.7 CALM 0 0 1009.1 - 0.0 - - - - - - -
28/07:00am 18.3 CALM 0 0 1009.0 - 0.0 - - - - - - -
28/06:30am 18.1 CALM 0 0 1008.8 - 0.0 - - - - - - -
28/06:00am 18.4 CALM 0 0 1008.8 - 0.0 - - - - - - -
28/05:30am 18.3 CALM 0 0 1008.9 - 0.0 - - - - - - -
28/05:00am 18.0 CALM 0 0 1009.0 - 0.0 - - - - - - -
28/04:30am 18.1 CALM 0 0 1009.2 - 0.0 - - - - - - -
28/04:00am 18.0 NW 3 4 1009.4 - 0.0 - - - - - - -
28/03:30am 17.9 WSW 4 4 1009.8 - 0.0 - - - - - - -
28/03:00am 17.8 WSW 5 5 1010.0 - 0.0 Fine Mostly cloudy 30 <0.1 1.0 - E
28/02:30am 18.1 SW 4 5 1010.2 - 0.0 - - - - - - -

Other Formats:

Comma delimited format used in spreadsheet applications
http://www.bom.gov.au/fwo/IDN60701/IDN60701.94933.axf

JavaScript Object Notation format (JSON) in row-major order
http://www.bom.gov.au/fwo/IDN60701/IDN60701.94933.json